createdAt,value
2019-02-15T00:02:11.470Z,60469.02
2019-02-15T00:04:40.415Z,60469.02
2019-02-15T00:07:08.788Z,60454.79
2019-02-15T00:09:37.185Z,60468.00
2019-02-15T00:12:06.395Z,60488.33
2019-02-15T00:14:43.735Z,60468.00
2019-02-15T00:17:12.905Z,60434.47
2019-02-15T00:19:43.155Z,60479.18
2019-02-15T00:22:11.558Z,60463.94
2019-02-15T00:24:39.956Z,60468.00
2019-02-15T00:27:08.919Z,60487.31
2019-02-15T00:29:37.423Z,60487.31
2019-02-15T00:32:06.041Z,60465.97
2019-02-15T00:34:34.491Z,60496.46
2019-02-15T00:37:03.044Z,60486.29
2019-02-15T00:39:31.445Z,60457.84
2019-02-15T00:42:00.069Z,60491.38
2019-02-15T00:44:28.469Z,60489.34
2019-02-15T00:47:07.242Z,60473.09
2019-02-15T00:49:37.541Z,60473.09
2019-02-15T00:52:10.746Z,60469.02
2019-02-15T00:54:46.815Z,60444.63
2019-02-15T00:57:19.840Z,60444.63
2019-02-15T00:59:55.760Z,60468.00
2019-02-15T01:02:26.004Z,60487.31
2019-02-15T01:04:58.781Z,60487.31
2019-02-15T01:07:40.751Z,60479.18
2019-02-15T01:10:10.886Z,60459.87
2019-02-15T01:12:40.908Z,60463.94
2019-02-15T01:15:09.301Z,60463.94
2019-02-15T01:17:38.451Z,60482.23
2019-02-15T01:20:07.449Z,60493.41
2019-02-15T01:22:35.942Z,60502.55
2019-02-15T01:25:05.757Z,60473.09
2019-02-15T01:27:35.783Z,60484.26
2019-02-15T01:30:13.633Z,60506.62
2019-02-15T01:32:56.265Z,60461.91
2019-02-15T01:35:29.450Z,60461.91
2019-02-15T01:37:59.475Z,60450.73
2019-02-15T01:40:38.295Z,60450.73
2019-02-15T01:43:11.323Z,60481.21
2019-02-15T01:45:41.627Z,60488.33
2019-02-15T01:48:10.088Z,60488.33
2019-02-15T01:50:38.782Z,60451.75
2019-02-15T01:53:07.246Z,60471.05
2019-02-15T01:55:36.060Z,60442.60
2019-02-15T01:58:04.486Z,60442.60
2019-02-15T02:00:33.592Z,60448.70
2019-02-15T02:03:02.327Z,60488.33
2019-02-15T02:05:30.711Z,60483.25
2019-02-15T02:07:59.383Z,60493.41
2019-02-15T02:10:27.778Z,60480.20
2019-02-15T02:12:56.179Z,60484.26
2019-02-15T02:15:24.574Z,60478.16
2019-02-15T02:17:53.210Z,60500.52
2019-02-15T02:20:21.895Z,60497.47
2019-02-15T02:22:50.301Z,60480.20
2019-02-15T02:25:19.060Z,60439.55
2019-02-15T02:27:47.753Z,60439.55
2019-02-15T02:30:16.434Z,60502.55
2019-02-15T02:32:45.123Z,60459.87
2019-02-15T02:35:13.624Z,60452.76
2019-02-15T02:37:41.985Z,60455.81
2019-02-15T02:40:10.477Z,60488.33
2019-02-15T02:42:38.869Z,60499.50
2019-02-15T02:45:08.437Z,60459.87
2019-02-15T02:47:36.827Z,60459.87
2019-02-15T02:50:07.352Z,60489.34
2019-02-15T02:52:35.755Z,60474.10
2019-02-15T02:55:05.139Z,60466.99
2019-02-15T02:57:34.028Z,60468.00
2019-02-15T03:00:02.650Z,60485.28
2019-02-15T03:02:31.028Z,60462.92
2019-02-15T03:04:59.793Z,60486.29
2019-02-15T03:07:28.170Z,60477.15
2019-02-15T03:09:56.576Z,60477.15
2019-02-15T03:12:24.972Z,60516.78
2019-02-15T03:14:53.351Z,60476.13
2019-02-15T03:17:21.819Z,60485.28
2019-02-15T03:19:50.244Z,60485.28
2019-02-15T03:22:18.640Z,60501.54
2019-02-15T03:24:47.079Z,60468.00
2019-02-15T03:27:15.435Z,60471.05
2019-02-15T03:29:43.891Z,60474.10
2019-02-15T03:32:12.278Z,60495.44
2019-02-15T03:34:40.798Z,60503.57
2019-02-15T03:37:26.064Z,60489.34
2019-02-15T03:39:56.441Z,60492.39
2019-02-15T03:42:25.449Z,60477.15
2019-02-15T03:44:53.827Z,60466.99
2019-02-15T03:47:24.047Z,60472.07
2019-02-15T03:49:52.434Z,60470.04
2019-02-15T03:52:20.830Z,60480.20
2019-02-15T03:54:49.486Z,60468.00
2019-02-15T03:57:17.996Z,60478.16
2019-02-15T03:59:46.448Z,60491.38
2019-02-15T04:02:14.931Z,60494.43
2019-02-15T04:04:43.616Z,60476.13
2019-02-15T04:07:12.610Z,60475.12
2019-02-15T04:09:41.252Z,60516.78
2019-02-15T04:12:09.636Z,60484.26
2019-02-15T04:14:38.015Z,60491.38
2019-02-15T04:17:06.404Z,60494.43
2019-02-15T04:19:35.126Z,60502.55
2019-02-15T04:22:03.502Z,60497.47
2019-02-15T04:24:32.489Z,60482.23
2019-02-15T04:27:00.862Z,60484.26
2019-02-15T04:29:29.413Z,60486.29
2019-02-15T04:31:57.802Z,60505.60
2019-02-15T04:34:26.173Z,60499.50
2019-02-15T04:36:55.096Z,60483.25
2019-02-15T04:39:23.706Z,60484.26
2019-02-15T04:41:52.087Z,60470.04
2019-02-15T04:44:20.476Z,60512.72
2019-02-15T04:46:50.094Z,60505.60
2019-02-15T04:49:18.756Z,60465.97
2019-02-15T04:51:47.241Z,60501.54
2019-02-15T04:54:15.909Z,60479.18
2019-02-15T04:56:44.353Z,60483.25
2019-02-15T04:59:12.768Z,60480.20
2019-02-15T05:01:41.132Z,60497.47
2019-02-15T05:04:09.825Z,60481.21
2019-02-15T05:06:38.328Z,60480.20
2019-02-15T05:09:06.704Z,60481.21
2019-02-15T05:11:35.475Z,60501.54
2019-02-15T05:14:03.862Z,60477.15
2019-02-15T05:16:32.233Z,60510.68
2019-02-15T05:19:00.620Z,60487.31
2019-02-15T05:21:29.314Z,60470.04
2019-02-15T05:23:57.982Z,60475.12
2019-02-15T05:26:26.616Z,60481.21
2019-02-15T05:28:55.003Z,60505.60
2019-02-15T05:31:23.380Z,60475.12
2019-02-15T05:33:52.013Z,60514.75
2019-02-15T05:36:20.386Z,60491.38
2019-02-15T05:38:48.783Z,60489.34
2019-02-15T05:41:17.167Z,60479.18
2019-02-15T05:43:45.575Z,60494.43
2019-02-15T05:46:14.210Z,60484.26
2019-02-15T05:48:42.590Z,60489.34
2019-02-15T05:51:10.994Z,60493.41
2019-02-15T05:53:39.363Z,60504.59
2019-02-15T05:56:07.759Z,60514.75
2019-02-15T05:58:36.155Z,60502.55
2019-02-15T06:01:04.924Z,60509.67
2019-02-15T06:03:33.333Z,60493.41
2019-02-15T06:06:01.694Z,60482.23
2019-02-15T06:08:31.340Z,60479.18
2019-02-15T06:11:07.392Z,60502.55
2019-02-15T06:13:30.297Z,60491.38
2019-02-15T06:15:58.665Z,60503.57
2019-02-15T06:18:27.043Z,60500.52
2019-02-15T06:20:55.430Z,60477.15
2019-02-15T06:23:24.055Z,60483.25
2019-02-15T06:25:52.550Z,60483.25
2019-02-15T06:28:20.897Z,60484.26
2019-02-15T06:30:49.304Z,60481.21
2019-02-15T06:33:17.840Z,60481.21
2019-02-15T06:35:46.366Z,60504.59
2019-02-15T06:38:14.767Z,60511.70
2019-02-15T06:40:43.142Z,60497.47
2019-02-15T06:43:11.669Z,60489.34
2019-02-15T06:45:40.080Z,60525.93
2019-02-15T06:48:08.432Z,60498.49
2019-02-15T06:50:36.815Z,60495.44
2019-02-15T06:53:05.206Z,60512.72
2019-02-15T06:55:33.844Z,60514.75
2019-02-15T06:58:02.311Z,60492.39
2019-02-15T07:00:34.985Z,60479.18
2019-02-15T07:03:19.673Z,60488.33
2019-02-15T07:05:48.047Z,60502.55
2019-02-15T07:08:16.426Z,60489.34
2019-02-15T07:10:44.814Z,60491.38
2019-02-15T07:13:13.190Z,60495.44
2019-02-15T07:15:41.582Z,60504.59
2019-02-15T07:18:10.247Z,60503.57
2019-02-15T07:20:38.640Z,60457.84
2019-02-15T07:23:07.018Z,60475.12
2019-02-15T07:25:35.403Z,60500.52
2019-02-15T07:28:03.789Z,60500.52
2019-02-15T07:30:32.163Z,60479.18
2019-02-15T07:33:00.851Z,60488.33
2019-02-15T07:35:29.226Z,60483.25
2019-02-15T07:37:57.891Z,60490.36
2019-02-15T07:40:26.583Z,60490.36
2019-02-15T07:42:55.194Z,60484.26
2019-02-15T07:45:23.843Z,60497.47
2019-02-15T07:47:52.236Z,60498.49
2019-02-15T07:50:20.914Z,60494.43
2019-02-15T07:52:49.302Z,60490.36
2019-02-15T07:55:18.076Z,60480.20
2019-02-15T07:57:46.461Z,60456.82
2019-02-15T08:00:15.764Z,60500.52
2019-02-15T08:02:44.146Z,60500.52
2019-02-15T08:05:13.160Z,60485.28
2019-02-15T08:07:41.556Z,60485.28
2019-02-15T08:10:11.504Z,60501.54
2019-02-15T08:12:39.906Z,60501.54
2019-02-15T08:15:10.543Z,60479.18
2019-02-15T08:17:38.943Z,60518.82
2019-02-15T08:20:10.255Z,60518.82
2019-02-15T08:22:38.632Z,60489.34
2019-02-15T08:25:08.095Z,60490.36
2019-02-15T08:27:36.472Z,60489.34
2019-02-15T08:30:07.514Z,60478.16
2019-02-15T08:32:35.892Z,60495.44
2019-02-15T08:35:05.259Z,60469.02
2019-02-15T08:37:33.756Z,60489.34
2019-02-15T08:40:02.129Z,60489.34
2019-02-15T08:42:30.509Z,60504.59
2019-02-15T08:44:58.908Z,60478.16
2019-02-15T08:47:27.655Z,60479.18
2019-02-15T08:49:56.046Z,60488.33
2019-02-15T08:52:24.422Z,60488.33
2019-02-15T08:54:53.246Z,60447.68
2019-02-15T08:57:21.672Z,60474.10
2019-02-15T08:59:50.282Z,60456.82
2019-02-15T09:02:22.428Z,60471.05
2019-02-15T09:04:50.827Z,60463.94
2019-02-15T09:07:19.497Z,60463.94
2019-02-15T09:09:47.999Z,60484.26
2019-02-15T09:12:16.764Z,60457.84
2019-02-15T09:14:45.170Z,60453.78
2019-02-15T09:17:13.548Z,60463.94
2019-02-15T09:19:42.144Z,60456.82
2019-02-15T09:22:10.799Z,60444.63
2019-02-15T09:24:39.488Z,60452.76
2019-02-15T09:27:09.815Z,60442.60
2019-02-15T09:29:38.210Z,60442.60
2019-02-15T09:32:06.593Z,60446.66
2019-02-15T09:34:35.257Z,60448.70
2019-02-15T09:37:03.644Z,60433.45
2019-02-15T09:39:32.323Z,60442.60
2019-02-15T09:42:00.696Z,60451.75
2019-02-15T09:44:29.399Z,60447.68
2019-02-15T09:46:57.771Z,60430.40
2019-02-15T09:49:26.231Z,60441.58
2019-02-15T09:51:55.570Z,60431.42
2019-02-15T09:54:24.231Z,60415.16
2019-02-15T09:56:52.607Z,60418.21
2019-02-15T09:59:21.008Z,60419.23
2019-02-15T10:01:49.677Z,60434.47
2019-02-15T10:04:18.675Z,60442.60
2019-02-15T10:06:47.292Z,60421.26
2019-02-15T10:09:15.717Z,60434.47
2019-02-15T10:11:44.113Z,60432.44
2019-02-15T10:14:12.902Z,60403.98
2019-02-15T10:16:41.593Z,60390.77
2019-02-15T10:19:10.223Z,60383.66
2019-02-15T10:21:38.614Z,60384.68
2019-02-15T10:24:07.009Z,60387.72
2019-02-15T10:26:35.391Z,60393.82
2019-02-15T10:29:03.934Z,60386.71
2019-02-15T10:31:32.320Z,60374.52
2019-02-15T10:34:01.077Z,60411.10
2019-02-15T10:36:29.458Z,60401.95
2019-02-15T10:38:57.854Z,60391.79
2019-02-15T10:41:26.242Z,60363.34
2019-02-15T10:43:54.623Z,60355.21
2019-02-15T10:46:23.026Z,60363.34
2019-02-15T10:48:51.396Z,60361.30
2019-02-15T10:51:20.129Z,60369.43
2019-02-15T10:53:48.809Z,60364.35
2019-02-15T10:56:17.498Z,60371.46
2019-02-15T10:58:47.406Z,60359.27
2019-02-15T11:01:16.095Z,60381.63
2019-02-15T11:03:44.475Z,60378.58
2019-02-15T11:06:12.870Z,60363.34
2019-02-15T11:08:41.240Z,60365.37
2019-02-15T11:11:09.708Z,60372.48
2019-02-15T11:13:38.498Z,60367.40
2019-02-15T11:16:06.885Z,60340.98
2019-02-15T11:18:35.407Z,60355.21
2019-02-15T11:21:04.063Z,60372.48
2019-02-15T11:23:32.445Z,60355.21
2019-02-15T11:26:00.842Z,60380.61
2019-02-15T11:28:29.500Z,60347.08
2019-02-15T11:30:57.963Z,60373.50
2019-02-15T11:33:26.663Z,60349.11
2019-02-15T11:35:55.345Z,60332.85
2019-02-15T11:38:23.739Z,60333.87
2019-02-15T11:40:52.414Z,60343.01
2019-02-15T11:43:21.104Z,60348.09
2019-02-15T11:45:49.478Z,60332.85
2019-02-15T11:48:18.098Z,60340.98
2019-02-15T11:50:46.491Z,60319.64
2019-02-15T11:53:15.366Z,60342.00
2019-02-15T11:55:44.020Z,60333.87
2019-02-15T11:58:12.708Z,60326.75
2019-02-15T12:00:41.391Z,60319.64
2019-02-15T12:03:09.777Z,60350.12
2019-02-15T12:05:38.166Z,60353.18
2019-02-15T12:08:06.604Z,60342.00
2019-02-15T12:10:35.130Z,60347.08
2019-02-15T12:13:03.622Z,60333.87
2019-02-15T12:15:32.096Z,60344.03
2019-02-15T12:18:00.561Z,60359.27
2019-02-15T12:20:29.242Z,60356.22
2019-02-15T12:22:57.623Z,60352.16
2019-02-15T12:25:26.018Z,60342.00
2019-02-15T12:27:54.388Z,60365.37
2019-02-15T12:30:22.787Z,60336.91
2019-02-15T12:32:51.214Z,60350.12
2019-02-15T12:35:19.565Z,60354.19
2019-02-15T12:37:48.209Z,60309.48
2019-02-15T12:40:16.607Z,60327.77
2019-02-15T12:42:45.074Z,60329.80
2019-02-15T12:45:16.736Z,60326.75
2019-02-15T12:47:45.133Z,60337.93
2019-02-15T12:50:21.780Z,60325.74
2019-02-15T12:52:50.240Z,60318.62
2019-02-15T12:55:18.640Z,60320.66
2019-02-15T12:57:47.057Z,60307.45
2019-02-15T13:00:18.510Z,60328.79
2019-02-15T13:02:47.149Z,60342.00
2019-02-15T13:05:15.833Z,60314.56
2019-02-15T13:07:44.525Z,60311.51
2019-02-15T13:10:16.696Z,60329.80
2019-02-15T13:12:45.079Z,60319.64
2019-02-15T13:15:14.006Z,60334.88
2019-02-15T13:17:42.656Z,60323.71
2019-02-15T13:20:11.401Z,60331.84
2019-02-15T13:22:40.225Z,60315.57
2019-02-15T13:25:09.475Z,60312.53
2019-02-15T13:27:38.066Z,60322.69
2019-02-15T13:30:09.675Z,60315.57
2019-02-15T13:32:38.050Z,60297.29
2019-02-15T13:35:09.461Z,60311.51
2019-02-15T13:37:38.036Z,60298.30
2019-02-15T13:40:08.824Z,60325.74
2019-02-15T13:42:37.341Z,60311.51
2019-02-15T13:45:08.728Z,60309.48
2019-02-15T13:47:37.127Z,60313.54
2019-02-15T13:50:08.826Z,60298.30
2019-02-15T13:52:37.268Z,60297.29
2019-02-15T13:55:06.999Z,60300.34
2019-02-15T13:57:35.419Z,60300.34
2019-02-15T14:00:05.138Z,60310.50
2019-02-15T14:02:33.520Z,60314.56
2019-02-15T14:05:01.917Z,60322.69
2019-02-15T14:07:30.116Z,60315.57
2019-02-15T14:10:00.325Z,60310.50
2019-02-15T14:12:28.724Z,60284.07
2019-02-15T14:14:57.102Z,60308.46
2019-02-15T14:17:25.578Z,60303.38
2019-02-15T14:19:54.154Z,60308.46
2019-02-15T14:22:22.686Z,60324.72
2019-02-15T14:24:51.281Z,60308.46
2019-02-15T14:27:19.742Z,60316.59
2019-02-15T14:29:48.170Z,60305.41
2019-02-15T14:32:19.649Z,60317.61
2019-02-15T14:34:48.113Z,60336.91
2019-02-15T14:37:16.450Z,60349.11
2019-02-15T14:39:44.847Z,60320.66
2019-02-15T14:42:13.236Z,60309.48
2019-02-15T14:44:41.986Z,60294.24
2019-02-15T14:47:10.377Z,60337.93
2019-02-15T14:49:38.793Z,60311.51
2019-02-15T14:52:07.175Z,60310.50
2019-02-15T14:54:35.559Z,60325.74
2019-02-15T14:57:05.187Z,60330.82
2019-02-15T14:59:33.647Z,60327.77
2019-02-15T15:02:02.040Z,60314.56
2019-02-15T15:04:30.509Z,60322.69
2019-02-15T15:06:58.894Z,60295.25
2019-02-15T15:09:27.364Z,60355.21
2019-02-15T15:11:55.739Z,60335.90
2019-02-15T15:14:24.124Z,60322.69
2019-02-15T15:16:52.576Z,60310.50
2019-02-15T15:19:20.955Z,60319.64
2019-02-15T15:21:49.353Z,60342.00
2019-02-15T15:24:17.737Z,60304.40
2019-02-15T15:26:46.146Z,60349.11
2019-02-15T15:29:14.606Z,60363.34
2019-02-15T15:31:43.007Z,60338.95
2019-02-15T15:34:11.397Z,60353.18
2019-02-15T15:36:39.778Z,60342.00
2019-02-15T15:39:08.360Z,60327.77
2019-02-15T15:41:36.734Z,60330.82
2019-02-15T15:44:06.733Z,60320.66
2019-02-15T15:46:35.123Z,60328.79
2019-02-15T15:49:03.495Z,60330.82
2019-02-15T15:51:31.952Z,60338.95
2019-02-15T15:54:00.375Z,60335.90
2019-02-15T15:56:28.805Z,60357.24
2019-02-15T15:58:57.312Z,60357.24
2019-02-15T16:01:25.735Z,60353.18
2019-02-15T16:03:54.148Z,60367.40
2019-02-15T16:06:24.721Z,60387.72
2019-02-15T16:08:52.661Z,60361.30
2019-02-15T16:11:21.091Z,60354.19
2019-02-15T16:13:51.030Z,60375.53
2019-02-15T16:16:19.402Z,60350.12
2019-02-15T16:18:48.016Z,60347.08
2019-02-15T16:21:16.893Z,60361.30
2019-02-15T16:23:45.419Z,60362.32
2019-02-15T16:26:13.802Z,60380.61
2019-02-15T16:28:42.184Z,60354.19
2019-02-15T16:31:10.599Z,60354.19
2019-02-15T16:33:39.015Z,60375.53
2019-02-15T16:36:07.381Z,60375.53
2019-02-15T16:38:35.770Z,60369.43
2019-02-15T16:41:05.075Z,60382.64
2019-02-15T16:43:33.459Z,60378.58
2019-02-15T16:46:02.124Z,60390.77
2019-02-15T16:48:30.513Z,60375.53
2019-02-15T16:50:59.215Z,60395.86
2019-02-15T16:53:27.596Z,60388.74
2019-02-15T16:55:55.962Z,60386.71
2019-02-15T16:58:24.356Z,60386.71
2019-02-15T17:00:52.743Z,60381.63
2019-02-15T17:03:26.222Z,60396.87
2019-02-15T17:05:55.028Z,60366.39
2019-02-15T17:08:23.566Z,60379.59
2019-02-15T17:10:51.949Z,60378.58
2019-02-15T17:13:20.336Z,60414.14
2019-02-15T17:15:48.727Z,60384.68
2019-02-15T17:18:17.129Z,60406.02
2019-02-15T17:20:45.554Z,60383.66
2019-02-15T17:23:13.948Z,60384.68
2019-02-15T17:25:42.341Z,60378.58
2019-02-15T17:28:11.069Z,60373.50
2019-02-15T17:30:39.531Z,60407.03
2019-02-15T17:33:08.188Z,60390.77
2019-02-15T17:35:36.573Z,60397.89
2019-02-15T17:38:05.022Z,60393.82
2019-02-15T17:40:33.421Z,60414.14
2019-02-15T17:43:01.802Z,60408.05
2019-02-15T17:45:30.191Z,60400.93
2019-02-15T17:47:58.566Z,60382.64
2019-02-15T17:50:26.946Z,60411.10
2019-02-15T17:52:55.345Z,60395.86
2019-02-15T17:55:23.733Z,60413.13
2019-02-15T17:57:52.127Z,60413.13
2019-02-15T18:00:22.196Z,60414.14
2019-02-15T18:02:50.584Z,60382.64
2019-02-15T18:05:18.963Z,60428.37
2019-02-15T18:07:51.433Z,60422.27
2019-02-15T18:10:19.816Z,60423.29
2019-02-15T18:12:48.198Z,60384.68
2019-02-15T18:15:16.641Z,60413.13
2019-02-15T18:17:45.365Z,60432.44
2019-02-15T18:20:13.735Z,60438.53
2019-02-15T18:22:42.230Z,60432.44
2019-02-15T18:25:10.720Z,60399.92
2019-02-15T18:27:39.598Z,60428.37
2019-02-15T18:30:13.077Z,60426.34
2019-02-15T18:32:43.092Z,60432.44
2019-02-15T18:35:11.478Z,60421.26
2019-02-15T18:37:39.873Z,60415.16
2019-02-15T18:40:10.095Z,60442.60
2019-02-15T18:42:38.461Z,60412.11
2019-02-15T18:45:18.943Z,60400.93
2019-02-15T18:47:44.721Z,60420.24
2019-02-15T18:50:13.189Z,60428.37
2019-02-15T18:52:41.797Z,60408.05
2019-02-15T18:55:11.116Z,60433.45
2019-02-15T18:57:39.507Z,60441.58
2019-02-15T19:00:16.422Z,60403.98
2019-02-15T19:02:49.550Z,60415.16
2019-02-15T19:05:17.921Z,60438.53
2019-02-15T19:07:46.367Z,60425.32
2019-02-15T19:10:22.593Z,60422.27
2019-02-15T19:12:50.970Z,60415.16
2019-02-15T19:15:19.648Z,60444.63
2019-02-15T19:17:48.024Z,60439.55
2019-02-15T19:20:17.348Z,60425.32
2019-02-15T19:22:45.892Z,60433.45
2019-02-15T19:25:15.905Z,60432.44
2019-02-15T19:27:44.327Z,60432.44
2019-02-15T19:30:16.069Z,60427.36
2019-02-15T19:32:44.549Z,60426.34
2019-02-15T19:35:13.349Z,60426.34
2019-02-15T19:37:41.756Z,60424.31
2019-02-15T19:40:12.786Z,60427.36
2019-02-15T19:42:42.696Z,60434.47
2019-02-15T19:45:12.237Z,60434.47
2019-02-15T19:47:40.610Z,60426.34
2019-02-15T19:50:11.855Z,60453.78
2019-02-15T19:52:40.707Z,60416.18
2019-02-15T19:55:10.341Z,60436.50
2019-02-15T19:57:38.723Z,60452.76
2019-02-15T20:00:15.636Z,60436.50
2019-02-15T20:02:44.010Z,60447.68
2019-02-15T20:05:12.728Z,60421.26
2019-02-15T20:07:41.128Z,60426.34
2019-02-15T20:10:12.664Z,60427.36
2019-02-15T20:12:41.113Z,60413.13
2019-02-15T20:15:12.591Z,60449.71
2019-02-15T20:17:40.972Z,60437.52
2019-02-15T20:20:11.801Z,60415.16
2019-02-15T20:22:40.407Z,60448.70
2019-02-15T20:25:12.884Z,60454.79
2019-02-15T20:27:41.270Z,60439.55
2019-02-15T20:30:15.668Z,60427.36
2019-02-15T20:32:44.073Z,60432.44
2019-02-15T20:35:13.616Z,60455.81
2019-02-15T20:37:42.119Z,60455.81
2019-02-15T20:40:12.206Z,60450.73
2019-02-15T20:42:42.915Z,60440.57
2019-02-15T20:45:16.284Z,60447.68
2019-02-15T20:47:44.669Z,60426.34
2019-02-15T20:50:14.030Z,60447.68
2019-02-15T20:52:42.437Z,60439.55
2019-02-15T20:55:13.048Z,60436.50
2019-02-15T20:57:41.489Z,60438.53
2019-02-15T21:00:13.001Z,60438.53
2019-02-15T21:02:41.411Z,60446.66
2019-02-15T21:05:12.871Z,60450.73
2019-02-15T21:07:41.494Z,60438.53
2019-02-15T21:10:14.515Z,60434.47
2019-02-15T21:12:42.910Z,60447.68
2019-02-15T21:15:13.445Z,60447.68
2019-02-15T21:17:42.102Z,60438.53
2019-02-15T21:20:12.231Z,60430.40
2019-02-15T21:22:40.624Z,60430.40
2019-02-15T21:25:12.156Z,60449.71
2019-02-15T21:27:40.558Z,60450.73
2019-02-15T21:30:14.018Z,60434.47
2019-02-15T21:32:42.415Z,60463.94
2019-02-15T21:35:10.969Z,60463.94
2019-02-15T21:37:39.380Z,60428.37
2019-02-15T21:40:13.201Z,60475.12
2019-02-15T21:42:41.689Z,60442.60
2019-02-15T21:45:13.487Z,60439.55
2019-02-15T21:47:42.171Z,60463.94
2019-02-15T21:50:17.271Z,60466.99
2019-02-15T21:52:44.191Z,60466.99
2019-02-15T21:55:14.073Z,60478.16
2019-02-15T21:57:42.462Z,60446.66
2019-02-15T22:00:22.399Z,60468.00
2019-02-15T22:02:51.020Z,60492.39
2019-02-15T22:05:19.395Z,60492.39
2019-02-15T22:07:47.805Z,60474.10
2019-02-15T22:10:18.099Z,60474.10
2019-02-15T22:12:48.021Z,60466.99
2019-02-15T22:15:19.354Z,60466.99
2019-02-15T22:17:48.092Z,60466.99
2019-02-15T22:20:26.018Z,60458.86
2019-02-15T22:22:47.985Z,60453.78
2019-02-15T22:25:16.383Z,60445.65
2019-02-15T22:27:44.792Z,60461.91
2019-02-15T22:30:20.079Z,60457.84
2019-02-15T22:32:48.474Z,60452.76
2019-02-15T22:35:16.864Z,60452.76
2019-02-15T22:37:45.257Z,60438.53
2019-02-15T22:40:31.553Z,60438.53
2019-02-15T22:43:08.670Z,60469.02
2019-02-15T22:45:37.085Z,60451.75
2019-02-15T22:48:05.586Z,60482.23
2019-02-15T22:50:36.296Z,60443.61
2019-02-15T22:53:04.084Z,60443.61
2019-02-15T22:55:32.478Z,60470.04
2019-02-15T22:58:04.466Z,60435.48
2019-02-15T23:00:40.434Z,60435.48
2019-02-15T23:03:08.849Z,60508.65
2019-02-15T23:05:37.236Z,60491.38
2019-02-15T23:08:05.622Z,60436.50
2019-02-15T23:10:34.026Z,60436.50
2019-02-15T23:13:02.412Z,60455.81
2019-02-15T23:15:31.034Z,60452.76
2019-02-15T23:17:59.442Z,60460.89
2019-02-15T23:20:28.945Z,60460.89
2019-02-15T23:22:57.338Z,60483.25
2019-02-15T23:25:27.293Z,60474.10
2019-02-15T23:27:55.683Z,60479.18
2019-02-15T23:30:24.100Z,60464.96
2019-02-15T23:32:52.726Z,60464.96
2019-02-15T23:35:21.125Z,60490.36
2019-02-15T23:37:49.748Z,60464.96
2019-02-15T23:40:18.153Z,60463.94
2019-02-15T23:42:46.540Z,60463.94
2019-02-15T23:45:14.920Z,60461.91
2019-02-15T23:47:46.837Z,60474.10
2019-02-15T23:50:15.445Z,60504.59
2019-02-15T23:52:43.981Z,60470.04
2019-02-15T23:55:12.383Z,60490.36
2019-02-15T23:57:40.765Z,60490.36
